Amsterdam, MO (64723)

1:23 AM CDT on August 27, 2016 (GMT -0500)
KMOAMSTE2 | | Change Station

Elev 906 ft 38.36 °N, 94.61 °W | Updated 1 second ago

Scattered Clouds
Scattered Clouds
69.8 °F
Feels Like 69.8 °F
N
0.0
Wind Variable Wind from SE
Gusts 0.0 mph

Today
High -- | Low -- °F
--% Chance of Precip.
Yesterday
High -- | Low -- °F
Precip. -- in
Pressure 30.02 in
Visibility 10.0 miles
Clouds Few 3400 ft
Scattered Clouds 6000 ft
Dew Point 64 °F
Humidity 83%
Rainfall 0.00 in
Snow Depth Not available.
6:43 AM 7:54 PM
Waning Crescent, 27% visible
METAR KIXD 270553Z AUTO 10004KT 10SM FEW034 SCT060 21/21 A3005 RMK AO2 RAE01 SLP166 P0000 60058 T02110206 10256 20211 402890200 50001
Pressure 30.02 in
Visibility 10.0 miles
Clouds Few 3400 ft
Scattered Clouds 6000 ft
Dew Point 64 °F
Humidity 83%
Rainfall 0.00 in
Snow Depth Not available.
6:43 AM 7:54 PM
Waning Crescent, 27% visible
METAR KIXD 270553Z AUTO 10004KT 10SM FEW034 SCT060 21/21 A3005 RMK AO2 RAE01 SLP166 P0000 60058 T02110206 10256 20211 402890200 50001

10-Day Weather Forecast

Almanac

Astronomy

Aug. 27, 2016 Rise Set
Actual Time
Civil Twilight
Nautical Twilight
Astronomical Twilight
Moon
Length of Visible Light
Length of Day
Tomorrow will be .
, % of the Moon is Illuminated

Today's Extremes

State Highs State Lows

Community

WunderPhotos

Upload Photos

1,935,303 photos uploaded!

WunderBlog® & News

Nearby

Air Quality

  Air Quality AQ Index Pollutant
Not available.

Snow Depth

Station Depth Elevation

Earthquake Activity

City Distance Mag. Time & Date
Minimum magnitude displayed is 2.5.

Coastal Water Temperatures

Place Temperature

Stations

Nearby Weather Stations

Station Location Temp. Windchill Dew Point Humidity Wind Precip. Elev Updated Type
                   

Watches & Warnings

There are currently no watches in effect.